Time;durP1;ratioP1;P1;durP2;ratioP2;P2;SDS_P1;SDS_P2;PMS_P1;PMS_P2;Temp;Humidity;BMP_temperature;BMP_pressure;BME280_temperature;BME280_humidity;BME280_pressure;Samples;Min_cycle;Max_cycle;Signal;HPM_P1;HPM_P2
2023/01/09 05:04:50;;;;;;;0.47;0.40;;;7.40;99.90;;;;;;5539698;23;20635;-66
2023/01/09 05:07:16;;;;;;;0.47;0.47;;;7.40;99.90;;;;;;4957484;28;20179;-63
2023/01/09 05:09:42;;;;;;;0.50;0.30;;;7.30;99.90;;;;;;4975221;28;20168;-64
2023/01/09 05:12:09;;;;;;;0.50;0.50;;;7.30;99.90;;;;;;4974770;28;20164;-64
2023/01/09 05:14:34;;;;;;;5.85;0.65;;;7.30;99.90;;;;;;4974277;28;20204;-65
2023/01/09 05:17:00;;;;;;;0.93;0.93;;;7.30;99.90;;;;;;4975147;28;20167;-66
2023/01/09 05:19:25;;;;;;;0.63;0.63;;;7.30;99.90;;;;;;4974718;28;20174;-65
2023/01/09 05:21:51;;;;;;;0.30;0.30;;;7.30;99.90;;;;;;4974702;28;20183;-65
2023/01/09 05:24:16;;;;;;;0.70;0.40;;;7.30;99.90;;;;;;4956961;28;20680;-65
2023/01/09 05:26:42;;;;;;;0.30;0.30;;;7.30;99.90;;;;;;4974731;28;20226;-67
2023/01/09 05:29:09;;;;;;;0.90;0.77;;;7.30;99.90;;;;;;4974478;28;20216;-66
2023/01/09 05:31:35;;;;;;;1.10;1.00;;;7.30;99.90;;;;;;4974295;28;20214;-67
2023/01/09 05:34:01;;;;;;;0.63;0.63;;;7.30;99.90;;;;;;4955337;28;20226;-69
2023/01/09 05:36:27;;;;;;;0.60;0.60;;;7.30;99.90;;;;;;4974351;28;20176;-67
2023/01/09 05:38:52;;;;;;;0.65;0.65;;;7.30;99.90;;;;;;4974085;28;20407;-66
2023/01/09 05:41:18;;;;;;;1.03;0.93;;;7.20;99.90;;;;;;4974465;28;20170;-65
2023/01/09 05:43:43;;;;;;;0.50;0.40;;;7.20;99.90;;;;;;4973874;28;20204;-65
2023/01/09 05:46:09;;;;;;;1.37;0.50;;;7.20;99.90;;;;;;4974480;28;20254;-65
2023/01/09 05:48:35;;;;;;;0.57;0.50;;;7.10;99.90;;;;;;4974691;28;20172;-67
2023/01/09 05:51:00;;;;;;;0.83;0.60;;;7.10;99.90;;;;;;4974424;28;20202;-66
2023/01/09 05:53:26;;;;;;;0.60;0.60;;;7.10;99.90;;;;;;4973592;28;20661;-66
2023/01/09 05:55:51;;;;;;;0.60;0.60;;;7.00;99.90;;;;;;4956828;28;20184;-67
2023/01/09 05:58:17;;;;;;;0.40;0.40;;;6.90;99.90;;;;;;4974646;28;20183;-67
2023/01/09 06:00:42;;;;;;;0.70;0.70;;;6.90;99.90;;;;;;4974609;28;20183;-66
2023/01/09 06:03:08;;;;;;;0.50;0.50;;;6.80;99.90;;;;;;4974242;28;20178;-65
2023/01/09 06:05:34;;;;;;;0.90;0.60;;;6.80;99.90;;;;;;4974211;28;20626;-66
2023/01/09 06:07:59;;;;;;;0.53;0.53;;;6.70;99.90;;;;;;4956786;28;20546;-67
2023/01/09 06:10:25;;;;;;;0.60;0.60;;;6.70;99.90;;;;;;4974361;28;20224;-67
2023/01/09 06:12:52;;;;;;;0.60;0.60;;;6.60;99.90;;;;;;4973828;28;20667;-66
2023/01/09 06:15:19;;;;;;;2.05;0.90;;;6.60;99.90;;;;;;4973765;28;20297;-66
2023/01/09 06:17:45;;;;;;;0.85;0.50;;;6.60;99.90;;;;;;4976617;28;20180;-67
2023/01/09 06:20:10;;;;;;;0.50;0.50;;;6.50;99.90;;;;;;4960594;28;20172;-67
2023/01/09 06:22:36;;;;;;;2.17;1.63;;;6.50;99.90;;;;;;4972486;28;20176;-64
2023/01/09 06:25:03;;;;;;;1.30;0.80;;;6.50;99.90;;;;;;4972535;28;20450;-67
2023/01/09 06:27:28;;;;;;;0.50;0.50;;;6.40;99.90;;;;;;4965193;28;20497;-67
2023/01/09 06:29:54;;;;;;;0.50;0.50;;;6.40;99.90;;;;;;4976938;28;20282;-68
2023/01/09 06:32:19;;;;;;;0.70;0.70;;;6.30;99.90;;;;;;4976330;28;20190;-67
2023/01/09 06:34:45;;;;;;;0.50;0.50;;;6.30;99.90;;;;;;4976861;28;20213;-69
2023/01/09 06:37:10;;;;;;;0.60;0.43;;;6.20;99.90;;;;;;4963189;28;20182;-67
2023/01/09 06:39:36;;;;;;;0.40;0.30;;;6.20;99.90;;;;;;4970717;28;20193;-67
2023/01/09 06:42:02;;;;;;;0.40;0.30;;;6.10;99.90;;;;;;4958174;29;20175;-68
2023/01/09 06:44:28;;;;;;;0.57;0.57;;;6.10;99.90;;;;;;4952546;28;20252;-71
2023/01/09 06:46:53;;;;;;;1.37;0.60;;;6.10;99.90;;;;;;4964617;28;20185;-66
2023/01/09 06:49:23;;;;;;;0.50;0.40;;;6.10;99.90;;;;;;4957736;29;20225;-68
2023/01/09 06:51:50;;;;;;;0.90;0.75;;;6.10;99.90;;;;;;4973184;28;20182;-68
2023/01/09 06:54:17;;;;;;;0.80;0.80;;;6.10;99.90;;;;;;4966865;28;20216;-68
2023/01/09 06:56:43;;;;;;;0.68;0.68;;;6.10;99.90;;;;;;4976576;28;20202;-69
2023/01/09 06:59:08;;;;;;;0.40;0.40;;;6.10;99.90;;;;;;4976882;28;20168;-68
2023/01/09 07:01:34;;;;;;;0.53;0.50;;;6.10;99.90;;;;;;4973224;28;20213;-68
2023/01/09 07:04:00;;;;;;;0.40;0.40;;;6.10;99.90;;;;;;4962575;28;20203;-67
2023/01/09 07:06:25;;;;;;;0.40;0.40;;;6.00;99.90;;;;;;4944612;29;20197;-68
2023/01/09 07:08:51;;;;;;;0.50;0.50;;;6.00;99.90;;;;;;4957572;29;20177;-68
2023/01/09 07:11:16;;;;;;;1.07;0.50;;;6.00;99.90;;;;;;4957534;29;20184;-67
2023/01/09 07:13:42;;;;;;;1.30;1.00;;;6.00;99.90;;;;;;4956912;28;20292;-67
2023/01/09 07:16:08;;;;;;;1.40;1.30;;;6.00;99.90;;;;;;4957532;29;20170;-69
2023/01/09 07:18:34;;;;;;;0.77;0.70;;;6.10;99.90;;;;;;4957402;28;20434;-67
2023/01/09 07:21:00;;;;;;;1.03;0.90;;;6.10;99.90;;;;;;4970416;28;20186;-66
2023/01/09 07:23:26;;;;;;;0.43;0.43;;;6.10;99.90;;;;;;4956598;28;20185;-65
2023/01/09 07:25:52;;;;;;;0.63;0.63;;;6.20;99.90;;;;;;4958019;28;20185;-67
2023/01/09 07:28:17;;;;;;;0.63;0.63;;;6.20;99.90;;;;;;4957960;28;20170;-66
2023/01/09 07:30:43;;;;;;;0.80;0.80;;;6.30;99.90;;;;;;4957883;28;20178;-67
2023/01/09 07:33:09;;;;;;;0.40;0.40;;;6.30;99.90;;;;;;4956673;28;20180;-67
2023/01/09 07:35:34;;;;;;;0.60;0.50;;;6.40;99.90;;;;;;4956942;28;20691;-67
2023/01/09 07:38:00;;;;;;;0.43;0.40;;;6.40;99.90;;;;;;4961551;28;20205;-67
2023/01/09 07:40:26;;;;;;;2.47;0.67;;;6.40;99.90;;;;;;4976154;28;20181;-67
2023/01/09 07:42:52;;;;;;;0.50;0.50;;;6.50;99.90;;;;;;4971257;28;20184;-67
2023/01/09 07:45:18;;;;;;;0.52;0.52;;;6.60;99.90;;;;;;4958001;28;20652;-68
2023/01/09 07:47:43;;;;;;;0.77;0.77;;;6.70;99.90;;;;;;4973855;28;20191;-67
2023/01/09 07:50:09;;;;;;;0.57;0.57;;;6.70;99.90;;;;;;4964343;28;20195;-69
2023/01/09 07:52:35;;;;;;;0.60;0.43;;;6.80;99.90;;;;;;4969315;28;20645;-69
2023/01/09 07:55:00;;;;;;;2.10;1.20;;;6.80;99.90;;;;;;4955185;28;20830;-67
2023/01/09 07:57:28;;;;;;;0.60;0.60;;;6.90;99.90;;;;;;4942673;28;20184;-71
2023/01/09 07:59:54;;;;;;;0.98;0.65;;;7.00;99.90;;;;;;4962226;28;20187;-68
2023/01/09 08:02:19;;;;;;;0.63;0.63;;;7.00;99.90;;;;;;4973355;28;20183;-68
2023/01/09 08:04:47;;;;;;;0.83;0.57;;;7.10;99.90;;;;;;4964955;28;20279;-66
2023/01/09 08:07:12;;;;;;;0.50;0.47;;;7.20;99.90;;;;;;4960752;28;20187;-65
2023/01/09 08:09:38;;;;;;;0.40;0.30;;;7.30;99.90;;;;;;4934429;28;20183;-68
2023/01/09 08:12:04;;;;;;;0.40;0.40;;;7.40;99.90;;;;;;4954888;28;20191;-69
2023/01/09 08:14:30;;;;;;;0.40;0.40;;;7.60;99.90;;;;;;4968458;28;20204;-71
2023/01/09 08:16:55;;;;;;;0.50;0.47;;;7.80;99.90;;;;;;4964176;28;20222;-68
2023/01/09 08:19:21;;;;;;;0.70;0.70;;;7.90;99.90;;;;;;4965169;28;20978;-69
2023/01/09 08:21:46;;;;;;;0.40;0.40;;;8.00;99.90;;;;;;4967062;28;20247;-71
2023/01/09 08:24:13;;;;;;;0.50;0.47;;;8.10;99.90;;;;;;4954759;28;20193;-70
2023/01/09 08:26:39;;;;;;;0.50;0.50;;;8.20;99.90;;;;;;4955620;28;20177;-65
2023/01/09 08:29:05;;;;;;;0.60;0.60;;;8.50;99.90;;;;;;4965872;28;20557;-66
2023/01/09 08:31:31;;;;;;;2.73;0.70;;;8.90;99.90;;;;;;4971697;28;20219;-68
2023/01/09 08:33:56;;;;;;;0.60;0.60;;;9.30;99.90;;;;;;4956283;28;20205;-68
2023/01/09 08:36:22;;;;;;;0.77;0.60;;;9.60;99.90;;;;;;4954686;28;20176;-67
2023/01/09 08:38:47;;;;;;;1.23;0.70;;;9.80;99.90;;;;;;4955222;28;20174;-65
2023/01/09 08:49:25;;;;;;;1.07;0.57;;;11.60;99.90;;;;;;4957231;28;20948;-68
2023/01/09 08:51:50;;;;;;;0.40;0.37;;;12.00;99.90;;;;;;4937847;28;20420;-68
2023/01/09 08:54:16;;;;;;;0.73;0.63;;;12.20;99.90;;;;;;4954194;28;20212;-65
2023/01/09 08:56:42;;;;;;;0.40;0.40;;;12.50;99.90;;;;;;4954973;28;20271;-68
2023/01/09 08:59:08;;;;;;;2.07;0.57;;;12.90;99.90;;;;;;4954747;28;20205;-68
2023/01/09 09:01:34;;;;;;;1.10;0.60;;;13.10;99.90;;;;;;4972402;28;20218;-64
2023/01/09 09:04:00;;;;;;;3.70;2.20;;;13.20;99.90;;;;;;4960010;28;20483;-66
2023/01/09 09:06:25;;;;;;;0.50;0.50;;;13.40;99.90;;;;;;4954822;28;20208;-68
2023/01/09 09:08:51;;;;;;;1.63;0.87;;;13.50;99.90;;;;;;4962796;28;20184;-67
2023/01/09 09:11:16;;;;;;;0.70;0.47;;;13.70;99.90;;;;;;4963035;28;20267;-68
2023/01/09 09:13:42;;;;;;;0.60;0.47;;;14.00;99.90;;;;;;4973842;28;20176;-70
2023/01/09 09:16:07;;;;;;;1.53;0.80;;;14.40;99.90;;;;;;4961751;28;20248;-68
2023/01/09 09:18:33;;;;;;;0.90;0.47;;;14.70;99.90;;;;;;4961735;28;20250;-69
2023/01/09 09:20:58;;;;;;;1.30;0.60;;;14.90;99.90;;;;;;4967528;28;20205;-69
2023/01/09 09:23:24;;;;;;;1.60;0.70;;;15.20;99.90;;;;;;4959740;28;20188;-68
2023/01/09 09:25:50;;;;;;;2.17;0.60;;;15.50;98.30;;;;;;4973837;28;20264;-69
2023/01/09 09:28:15;;;;;;;2.77;0.50;;;15.50;97.90;;;;;;4960913;28;20178;-71
2023/01/09 09:30:41;;;;;;;0.60;0.50;;;15.50;97.80;;;;;;4974266;28;20172;-68
2023/01/09 09:33:07;;;;;;;0.40;0.40;;;15.50;96.90;;;;;;4972315;28;20188;-68
2023/01/09 09:35:33;;;;;;;2.10;1.37;;;15.50;97.60;;;;;;4953300;29;20463;-68
2023/01/09 09:38:01;;;;;;;2.67;0.60;;;15.50;97.10;;;;;;4954484;28;20205;-69
2023/01/09 09:40:51;;;;;;;0.40;0.40;;;15.30;97.10;;;;;;4956557;28;20264;-69
2023/01/09 09:46:40;;;;;;;0.90;0.90;;;15.40;98.60;;;;;;4895567;29;20792;-68
2023/01/09 09:49:15;;;;;;;0.50;0.50;;;16.00;99.10;;;;;;4904138;29;20788;-71
2023/01/09 09:52:21;;;;;;;0.70;0.53;;;16.30;98.10;;;;;;4912502;29;20433;-68
2023/01/09 09:54:50;;;;;;;0.73;0.60;;;16.40;96.00;;;;;;4884280;29;22042;-69
2023/01/09 09:57:22;;;;;;;0.80;0.60;;;16.10;96.50;;;;;;4894804;29;20423;-68
2023/01/09 09:59:50;;;;;;;0.43;0.40;;;15.50;96.30;;;;;;4878585;29;20427;-67
2023/01/09 10:02:49;;;;;;;0.60;0.60;;;14.80;96.20;;;;;;4896611;29;20402;-67
2023/01/09 10:05:26;;;;;;;0.60;0.50;;;14.10;96.60;;;;;;4899087;29;20464;-66
2023/01/09 10:07:52;;;;;;;1.50;0.90;;;13.40;98.10;;;;;;4898325;29;20925;-69
2023/01/09 10:10:43;;;;;;;0.50;0.43;;;12.80;98.60;;;;;;4917491;29;20429;-69
2023/01/09 10:16:27;;;;;;;1.33;0.53;;;12.40;99.80;;;;;;4918531;29;20770;-68
2023/01/09 10:19:08;;;;;;;1.27;0.60;;;12.20;99.90;;;;;;4916179;29;20418;-69
2023/01/09 10:22:08;;;;;;;1.17;0.67;;;12.10;99.90;;;;;;4900350;29;20474;-69
2023/01/09 10:24:52;;;;;;;0.70;0.70;;;12.20;99.90;;;;;;4950800;28;20984;-69
2023/01/09 10:27:43;;;;;;;7.60;0.90;;;12.30;99.90;;;;;;4957929;29;20423;-69
2023/01/09 10:30:27;;;;;;;0.93;0.63;;;12.50;99.90;;;;;;4973728;28;20942;-70
2023/01/09 10:33:31;;;;;;;0.50;0.50;;;12.40;99.90;;;;;;4976941;28;20411;-67
2023/01/09 10:36:28;;;;;;;1.10;0.67;;;12.10;99.90;;;;;;4894861;29;20438;-68
2023/01/09 10:38:57;;;;;;;1.17;0.50;;;11.80;99.90;;;;;;4898710;29;20431;-67
2023/01/09 10:41:39;;;;;;;0.50;0.50;;;11.70;99.90;;;;;;4892147;29;20449;-68
2023/01/09 10:44:26;;;;;;;1.23;0.50;;;11.70;99.90;;;;;;4915396;29;20476;-70
2023/01/09 10:46:56;;;;;;;1.20;0.80;;;11.50;99.90;;;;;;4887769;29;20468;-67
2023/01/09 10:49:23;;;;;;;2.83;0.97;;;11.40;99.90;;;;;;4908787;29;20923;-67
2023/01/09 10:51:56;;;;;;;0.80;0.70;;;11.20;99.90;;;;;;4906321;29;20458;-68
2023/01/09 10:54:22;;;;;;;0.40;0.40;;;10.90;99.90;;;;;;4896896;29;20475;-68
2023/01/09 10:57:15;;;;;;;1.03;0.60;;;10.70;99.90;;;;;;4898503;29;20788;-67
2023/01/09 10:59:41;;;;;;;0.70;0.60;;;10.60;99.90;;;;;;4897182;29;20425;-65
2023/01/09 11:02:22;;;;;;;1.10;1.00;;;10.60;99.90;;;;;;4891194;29;20564;-66
2023/01/09 11:04:48;;;;;;;3.43;1.10;;;10.70;99.90;;;;;;4880816;29;20450;-66
2023/01/09 11:07:20;;;;;;;0.40;0.40;;;10.80;99.90;;;;;;4879957;29;20443;-66
2023/01/09 11:10:08;;;;;;;1.10;0.43;;;10.80;99.90;;;;;;4917268;28;20195;-65
2023/01/09 11:12:35;;;;;;;1.00;1.00;;;10.90;99.90;;;;;;4957168;29;20411;-67
2023/01/09 11:15:15;;;;;;;0.80;0.50;;;10.90;99.90;;;;;;4957070;29;20998;-65
2023/01/09 11:17:50;;;;;;;3.67;1.60;;;10.80;99.90;;;;;;4969453;28;20428;-66
2023/01/09 11:20:17;;;;;;;0.73;0.50;;;10.80;99.90;;;;;;4976512;28;20871;-66
2023/01/09 11:22:45;;;;;;;3.47;0.80;;;10.70;99.90;;;;;;4976305;28;20909;-66
2023/01/09 11:25:16;;;;;;;0.80;0.50;;;10.60;99.90;;;;;;4976286;28;20803;-66
2023/01/09 11:27:42;;;;;;;1.70;1.63;;;10.50;99.90;;;;;;4976610;28;20682;-65
2023/01/09 11:30:08;;;;;;;0.50;0.40;;;10.50;99.90;;;;;;4969355;28;20831;-65
2023/01/09 11:32:34;;;;;;;3.03;0.67;;;10.50;99.90;;;;;;4965213;28;20181;-65
2023/01/09 11:35:03;;;;;;;6.60;1.33;;;10.50;99.90;;;;;;4957900;28;20675;-65
2023/01/09 11:37:30;;;;;;;1.17;0.50;;;10.50;99.90;;;;;;4968417;28;20476;-66
2023/01/09 11:39:58;;;;;;;1.17;0.77;;;10.50;99.90;;;;;;4957953;28;20429;-66
2023/01/09 11:45:24;;;;;;;2.33;1.20;;;10.60;99.90;;;;;;4973727;28;20962;-65
2023/01/09 11:47:50;;;;;;;0.77;0.73;;;10.80;99.90;;;;;;4974842;28;20784;-66
2023/01/09 11:50:21;;;;;;;0.60;0.50;;;10.80;99.90;;;;;;4976150;28;20409;-67
2023/01/09 11:53:12;;;;;;;2.10;0.80;;;10.80;99.90;;;;;;4959547;28;20189;-63
2023/01/09 11:55:37;;;;;;;0.93;0.60;;;10.80;99.90;;;;;;4956755;28;20792;-66
2023/01/09 11:58:04;;;;;;;0.50;0.50;;;10.70;99.90;;;;;;4971484;28;20511;-66
2023/01/09 12:00:40;;;;;;;2.83;2.63;;;10.60;99.90;;;;;;4974801;28;20962;-65
2023/01/09 12:03:41;;;;;;;1.95;0.60;;;10.60;99.90;;;;;;4965360;28;20952;-66
2023/01/09 12:06:29;;;;;;;0.52;0.52;;;10.50;99.90;;;;;;4931100;28;20233;-65
2023/01/09 12:09:19;;;;;;;0.40;0.40;;;10.40;99.90;;;;;;4974665;28;20182;-67
2023/01/09 12:12:00;;;;;;;0.50;0.50;;;10.40;99.90;;;;;;4973416;28;20174;-65
2023/01/09 12:14:56;;;;;;;1.50;0.80;;;10.60;99.90;;;;;;4974338;28;20214;-65
2023/01/09 12:17:59;;;;;;;1.03;0.70;;;10.70;99.90;;;;;;4956831;28;20520;-65
2023/01/09 12:20:50;;;;;;;0.70;0.50;;;10.90;99.90;;;;;;4956719;28;20415;-65
2023/01/09 12:23:25;;;;;;;0.90;0.40;;;11.10;99.90;;;;;;4938539;29;20957;-66
2023/01/09 12:26:09;;;;;;;0.70;0.40;;;11.20;99.90;;;;;;4960747;28;20449;-66
2023/01/09 12:29:04;;;;;;;1.37;0.70;;;11.20;99.90;;;;;;4975251;28;21104;-65
2023/01/09 12:31:39;;;;;;;1.60;0.70;;;11.10;99.90;;;;;;4963121;28;20473;-66
2023/01/09 12:34:33;;;;;;;0.73;0.73;;;10.90;99.90;;;;;;4961538;28;20923;-65
2023/01/09 12:37:43;;;;;;;2.63;0.60;;;10.90;99.90;;;;;;4956410;28;20420;-67
2023/01/09 12:40:51;;;;;;;2.87;1.00;;;10.70;99.90;;;;;;4938869;29;20932;-64
2023/01/09 12:43:42;;;;;;;1.83;0.60;;;10.50;99.90;;;;;;4969959;28;20427;-64
2023/01/09 12:46:17;;;;;;;1.40;0.60;;;10.50;99.90;;;;;;4975134;28;20435;-65
2023/01/09 12:49:02;;;;;;;1.75;0.80;;;10.40;99.90;;;;;;4974786;28;20184;-64
2023/01/09 12:51:39;;;;;;;1.90;1.08;;;10.30;99.90;;;;;;4973981;28;20189;-65
2023/01/09 12:54:12;;;;;;;1.40;0.50;;;10.20;99.90;;;;;;4967014;28;20212;-64
2023/01/09 12:56:44;;;;;;;0.50;0.50;;;10.10;99.90;;;;;;4974780;28;20226;-64
2023/01/09 12:59:42;;;;;;;1.50;1.00;;;10.00;99.90;;;;;;4974775;28;20188;-64
2023/01/09 13:02:27;;;;;;;0.70;0.65;;;9.80;99.90;;;;;;4974019;28;20183;-67
2023/01/09 13:04:58;;;;;;;1.63;0.95;;;9.70;99.90;;;;;;4957371;28;20200;-66
2023/01/09 13:07:38;;;;;;;3.20;1.00;;;9.70;99.90;;;;;;4939646;28;20217;-65
2023/01/09 13:10:06;;;;;;;0.45;0.45;;;9.70;99.90;;;;;;4973156;28;20176;-66
2023/01/09 13:12:37;;;;;;;1.02;0.82;;;9.70;99.90;;;;;;4968110;28;20232;-67
2023/01/09 13:15:33;;;;;;;1.13;0.90;;;9.80;99.90;;;;;;4945563;29;20259;-65
2023/01/09 13:18:30;;;;;;;2.97;1.60;;;9.80;99.90;;;;;;4970570;28;20172;-66
2023/01/09 13:20:56;;;;;;;0.65;0.65;;;10.00;99.90;;;;;;4957261;28;20180;-65
2023/01/09 13:23:46;;;;;;;0.77;0.70;;;10.10;99.90;;;;;;4957078;28;20193;-65
2023/01/09 13:26:20;;;;;;;1.70;0.40;;;10.20;99.90;;;;;;4973236;28;20223;-64
2023/01/09 13:28:51;;;;;;;0.30;0.30;;;10.20;99.90;;;;;;4973329;28;20211;-66
2023/01/09 13:31:37;;;;;;;2.33;0.60;;;10.20;99.90;;;;;;4957302;28;20370;-66
2023/01/09 13:34:08;;;;;;;2.97;0.80;;;10.20;99.90;;;;;;4933678;29;20732;-66
2023/01/09 13:36:38;;;;;;;1.15;0.65;;;10.20;99.90;;;;;;4933451;29;20191;-66
2023/01/09 13:39:05;;;;;;;0.57;0.57;;;10.10;99.90;;;;;;4923862;29;20224;-67
2023/01/09 13:44:23;;;;;;;0.60;0.50;;;10.00;99.90;;;;;;4917355;29;20588;-67
2023/01/09 13:46:55;;;;;;;0.40;0.40;;;9.90;99.90;;;;;;4933840;29;20578;-68
2023/01/09 13:49:42;;;;;;;0.90;0.60;;;9.80;99.90;;;;;;4921674;29;20184;-69
2023/01/09 13:52:38;;;;;;;0.95;0.70;;;9.70;99.90;;;;;;4931688;29;20202;-70
2023/01/09 13:55:10;;;;;;;0.50;0.50;;;9.70;99.90;;;;;;4926395;29;20210;-70
2023/01/09 13:57:57;;;;;;;0.95;0.50;;;9.70;99.90;;;;;;4926764;29;20230;-69
2023/01/09 14:00:22;;;;;;;0.40;0.40;;;9.70;99.90;;;;;;4902040;29;20200;-69
2023/01/09 14:02:52;;;;;;;0.70;0.70;;;9.70;99.90;;;;;;4927951;29;20654;-69
2023/01/09 14:05:24;;;;;;;0.82;0.68;;;9.70;99.90;;;;;;4932357;29;20363;-69
2023/01/09 14:08:01;;;;;;;0.98;0.60;;;9.70;99.90;;;;;;4927261;29;20563;-70
2023/01/09 14:10:37;;;;;;;1.95;0.50;;;9.70;99.90;;;;;;4913315;29;20238;-70
2023/01/09 14:13:14;;;;;;;0.30;0.30;;;9.60;99.90;;;;;;4976454;28;20173;-70
2023/01/09 14:15:43;;;;;;;0.50;0.50;;;9.50;99.90;;;;;;4967415;28;20689;-71
2023/01/09 14:18:28;;;;;;;0.55;0.55;;;9.40;99.90;;;;;;4977095;28;20185;-70
2023/01/09 14:21:04;;;;;;;0.50;0.45;;;9.30;99.90;;;;;;4972414;28;20180;-69
2023/01/09 14:23:32;;;;;;;0.40;0.40;;;9.20;99.90;;;;;;4960594;28;20223;-69
2023/01/09 14:25:59;;;;;;;0.98;0.65;;;9.10;99.90;;;;;;4972840;28;20183;-70
2023/01/09 14:28:29;;;;;;;0.50;0.50;;;9.10;99.90;;;;;;4972016;28;20177;-70
2023/01/09 14:30:58;;;;;;;0.60;0.30;;;9.10;99.90;;;;;;4957009;29;20172;-70
2023/01/09 14:33:31;;;;;;;1.13;0.57;;;9.20;99.90;;;;;;4956437;28;20495;-69
2023/01/09 14:36:12;;;;;;;0.50;0.50;;;9.30;99.90;;;;;;4939128;29;20208;-70
2023/01/09 14:39:00;;;;;;;0.35;0.35;;;9.30;99.90;;;;;;4958122;28;20212;-70
2023/01/09 14:44:33;;;;;;;0.60;0.60;;;9.20;99.90;;;;;;4969084;28;20211;-71
2023/01/09 14:47:13;;;;;;;2.03;0.55;;;9.20;99.90;;;;;;4970204;28;20603;-71
2023/01/09 14:50:18;;;;;;;1.20;1.10;;;9.20;99.90;;;;;;4960991;28;20647;-69
2023/01/09 14:53:03;;;;;;;3.33;0.38;;;9.20;99.90;;;;;;4952569;28;20198;-71
2023/01/09 14:55:32;;;;;;;0.55;0.50;;;9.10;99.90;;;;;;4975851;28;20210;-70
2023/01/09 14:58:11;;;;;;;0.70;0.70;;;9.00;99.90;;;;;;4976698;28;20574;-69
2023/01/09 15:00:46;;;;;;;0.75;0.50;;;8.80;99.90;;;;;;4968779;28;20184;-71
2023/01/09 15:03:12;;;;;;;0.50;0.50;;;8.70;99.90;;;;;;4960074;28;20185;-69
2023/01/09 15:05:38;;;;;;;0.50;0.50;;;8.60;99.90;;;;;;4964724;28;20627;-69
2023/01/09 15:08:04;;;;;;;0.53;0.53;;;8.50;99.90;;;;;;4972989;28;20183;-68
2023/01/09 15:10:37;;;;;;;0.50;0.45;;;8.40;99.90;;;;;;4976745;28;20179;-69
2023/01/09 15:13:06;;;;;;;0.75;0.73;;;8.30;99.90;;;;;;4970298;28;20247;-69
2023/01/09 15:15:34;;;;;;;1.00;0.80;;;8.20;99.90;;;;;;4964640;28;20278;-70
2023/01/09 15:18:02;;;;;;;1.67;1.58;;;8.10;99.90;;;;;;4975704;28;20262;-70
2023/01/09 15:20:30;;;;;;;0.50;0.50;;;8.10;99.90;;;;;;4969814;28;20177;-69
2023/01/09 15:22:57;;;;;;;1.10;0.60;;;8.10;99.90;;;;;;4957943;28;20220;-70
2023/01/09 15:25:32;;;;;;;0.80;0.80;;;8.00;99.90;;;;;;4957218;28;20193;-70
2023/01/09 15:27:59;;;;;;;0.70;0.52;;;8.00;99.90;;;;;;4973839;28;20198;-69
2023/01/09 15:30:34;;;;;;;1.10;1.00;;;8.10;99.90;;;;;;4956892;28;20643;-69
2023/01/09 15:33:14;;;;;;;0.68;0.68;;;8.10;99.90;;;;;;4976035;28;20164;-69
2023/01/09 15:35:43;;;;;;;0.60;0.60;;;8.10;99.90;;;;;;4942336;29;20223;-69
2023/01/09 15:38:23;;;;;;;0.85;0.85;;;8.00;99.90;;;;;;4971419;28;20306;-68
2023/01/09 15:40:53;;;;;;;0.60;0.50;;;8.10;99.90;;;;;;4964610;28;20176;-69
2023/01/09 15:43:19;;;;;;;0.60;0.55;;;8.10;99.90;;;;;;4972333;28;20179;-68
2023/01/09 15:45:46;;;;;;;0.75;0.75;;;8.10;99.90;;;;;;4975541;28;20218;-69
2023/01/09 15:48:38;;;;;;;1.60;1.05;;;8.10;99.90;;;;;;4966518;28;20176;-66
2023/01/09 15:51:17;;;;;;;0.60;0.60;;;8.10;99.90;;;;;;4971877;28;20686;-65
2023/01/09 15:53:47;;;;;;;0.60;0.60;;;8.10;99.90;;;;;;4959958;28;20647;-64
2023/01/09 15:56:32;;;;;;;0.70;0.70;;;8.10;99.90;;;;;;4965007;28;20247;-65
2023/01/09 15:58:58;;;;;;;0.70;0.70;;;8.10;99.90;;;;;;4972131;28;20262;-65
2023/01/09 16:01:34;;;;;;;0.45;0.43;;;8.10;99.90;;;;;;4962096;28;20185;-65
2023/01/09 16:04:08;;;;;;;0.73;0.73;;;8.00;99.90;;;;;;4962514;28;20316;-65
2023/01/09 16:06:44;;;;;;;0.57;0.57;;;7.80;99.90;;;;;;4962414;28;20199;-65
2023/01/09 16:09:20;;;;;;;0.80;0.55;;;7.50;99.90;;;;;;4966602;28;20642;-64
2023/01/09 16:11:50;;;;;;;0.52;0.52;;;7.30;99.90;;;;;;4964058;28;20194;-63
2023/01/09 16:14:34;;;;;;;0.55;0.55;;;7.20;99.90;;;;;;4958704;28;20231;-65
2023/01/09 16:17:06;;;;;;;1.08;0.98;;;7.00;99.90;;;;;;4973695;28;20191;-64
2023/01/09 16:19:47;;;;;;;0.60;0.60;;;6.90;99.90;;;;;;4975219;28;20221;-66
2023/01/09 16:22:19;;;;;;;2.25;0.57;;;6.80;99.90;;;;;;4973637;28;20243;-66
2023/01/09 16:24:46;;;;;;;0.60;0.40;;;6.70;99.90;;;;;;4957113;28;20270;-65
2023/01/09 16:27:33;;;;;;;0.60;0.60;;;6.70;99.90;;;;;;4961322;28;20180;-67
2023/01/09 16:30:00;;;;;;;0.77;0.77;;;6.70;99.90;;;;;;4968947;28;20696;-64
2023/01/09 16:32:30;;;;;;;0.80;0.80;;;6.60;99.90;;;;;;4957976;28;20255;-65
2023/01/09 16:35:03;;;;;;;0.70;0.70;;;6.60;99.90;;;;;;4955985;28;20208;-65
2023/01/09 16:37:30;;;;;;;1.42;1.25;;;6.50;99.90;;;;;;4964170;28;20181;-66
2023/01/09 16:40:17;;;;;;;0.70;0.70;;;6.50;99.90;;;;;;4966556;28;20627;-66
2023/01/09 16:42:59;;;;;;;0.80;0.80;;;6.50;99.90;;;;;;4957822;28;20248;-66
2023/01/09 16:45:36;;;;;;;1.60;1.50;;;6.50;99.90;;;;;;4968091;28;20669;-67
2023/01/09 16:48:12;;;;;;;1.23;1.13;;;6.50;99.90;;;;;;4964713;28;20203;-65
2023/01/09 16:50:39;;;;;;;0.90;0.88;;;6.50;99.90;;;;;;4962405;28;20176;-65
2023/01/09 16:53:26;;;;;;;1.38;1.27;;;6.50;99.90;;;;;;4969856;28;20214;-67
2023/01/09 16:55:53;;;;;;;1.08;0.77;;;6.50;99.90;;;;;;4956347;28;20203;-66
2023/01/09 16:58:27;;;;;;;1.30;1.20;;;6.50;99.90;;;;;;4940834;29;20175;-63
2023/01/09 17:00:53;;;;;;;0.90;0.90;;;6.60;99.90;;;;;;4960168;28;20243;-65
2023/01/09 17:03:19;;;;;;;0.93;0.90;;;6.60;99.90;;;;;;4961797;28;20263;-64
2023/01/09 17:05:49;;;;;;;1.50;1.23;;;6.70;99.90;;;;;;4943239;29;20226;-66
2023/01/09 17:08:29;;;;;;;1.33;1.10;;;6.70;99.90;;;;;;4943409;29;20211;-67
2023/01/09 17:10:56;;;;;;;1.67;1.15;;;6.70;99.90;;;;;;4973377;28;20202;-65
2023/01/09 17:13:22;;;;;;;0.85;0.85;;;6.70;99.90;;;;;;4961163;28;20176;-65
2023/01/09 17:15:48;;;;;;;0.52;0.52;;;6.70;99.90;;;;;;4941420;28;20207;-64
2023/01/09 17:18:16;;;;;;;1.20;1.10;;;6.80;99.90;;;;;;4974207;28;20258;-64
2023/01/09 17:20:44;;;;;;;1.52;0.77;;;6.80;99.90;;;;;;4955481;28;20435;-63
2023/01/09 17:23:10;;;;;;;1.35;0.85;;;6.90;99.90;;;;;;4966461;28;20214;-63
2023/01/09 17:28:32;;;;;;;1.02;0.93;;;6.90;99.90;;;;;;4974753;28;20436;-64
2023/01/09 17:31:04;;;;;;;0.95;0.80;;;6.90;99.90;;;;;;4958462;28;20187;-65
2023/01/09 17:33:30;;;;;;;1.27;0.77;;;6.90;99.90;;;;;;4954999;29;20638;-63
2023/01/09 17:35:56;;;;;;;0.90;0.68;;;6.80;99.90;;;;;;4961388;28;20204;-65
2023/01/09 17:38:22;;;;;;;1.07;0.70;;;6.80;99.90;;;;;;4963208;28;20175;-64
2023/01/09 17:40:48;;;;;;;0.67;0.67;;;6.80;99.90;;;;;;4965594;28;20431;-63
2023/01/09 17:43:15;;;;;;;0.55;0.55;;;6.80;99.90;;;;;;4964924;28;20587;-63
2023/01/09 17:45:41;;;;;;;0.60;0.60;;;6.80;99.90;;;;;;4956590;28;20199;-64
2023/01/09 17:48:15;;;;;;;0.50;0.50;;;6.70;99.90;;;;;;4973495;28;20184;-64
2023/01/09 17:50:40;;;;;;;0.60;0.60;;;6.70;99.90;;;;;;4960532;28;20186;-64
2023/01/09 17:53:06;;;;;;;0.30;0.30;;;6.70;99.90;;;;;;4964588;28;20728;-62
2023/01/09 17:55:33;;;;;;;0.60;0.60;;;6.70;99.90;;;;;;4956468;28;20589;-62
2023/01/09 17:57:59;;;;;;;0.68;0.68;;;6.70;99.90;;;;;;4957729;28;20177;-62
2023/01/09 18:00:28;;;;;;;0.40;0.40;;;6.70;99.90;;;;;;4957422;28;20302;-61
2023/01/09 18:02:55;;;;;;;0.65;0.65;;;6.60;99.90;;;;;;4968138;28;20183;-63
2023/01/09 18:05:22;;;;;;;0.70;0.60;;;6.70;99.90;;;;;;4966305;28;20214;-65
2023/01/09 18:07:48;;;;;;;0.70;0.70;;;6.70;99.90;;;;;;4967027;28;20183;-62
2023/01/09 18:10:16;;;;;;;0.70;0.60;;;6.70;99.90;;;;;;4973915;28;20231;-65
2023/01/09 18:12:41;;;;;;;1.08;0.98;;;6.70;99.90;;;;;;4974970;28;20182;-62
2023/01/09 18:15:07;;;;;;;0.80;0.80;;;6.70;99.90;;;;;;4977304;28;20200;-64
2023/01/09 18:17:33;;;;;;;0.50;0.50;;;6.70;99.90;;;;;;4959449;28;20536;-65
2023/01/09 18:19:59;;;;;;;1.77;1.67;;;6.70;99.90;;;;;;4941392;29;20176;-71
2023/01/09 18:22:24;;;;;;;1.77;1.27;;;6.70;99.90;;;;;;4958430;29;20607;-67
2023/01/09 18:24:50;;;;;;;0.90;0.90;;;6.70;99.90;;;;;;4959035;28;20214;-68
2023/01/09 18:27:15;;;;;;;0.80;0.80;;;6.70;99.90;;;;;;4958555;29;20553;-67
2023/01/09 18:29:41;;;;;;;0.50;0.50;;;6.80;99.90;;;;;;4958528;28;20219;-68
2023/01/09 18:32:07;;;;;;;1.67;0.97;;;6.80;99.90;;;;;;4971386;28;20236;-66
2023/01/09 18:34:32;;;;;;;0.83;0.47;;;6.80;99.90;;;;;;4958183;28;20208;-67
2023/01/09 18:36:58;;;;;;;0.83;0.83;;;6.70;99.90;;;;;;4958364;29;20181;-65
2023/01/09 18:39:24;;;;;;;1.40;1.00;;;6.80;99.90;;;;;;4970313;28;20193;-67
2023/01/09 18:41:50;;;;;;;1.33;0.80;;;6.70;99.90;;;;;;4958774;28;20180;-70
2023/01/09 18:44:18;;;;;;;0.60;0.60;;;6.70;99.90;;;;;;4940370;29;20207;-62
2023/01/09 18:46:45;;;;;;;0.90;0.90;;;6.70;99.90;;;;;;4958138;29;20184;-66